Time;durP1;ratioP1;P1;durP2;ratioP2;P2;SDS_P1;SDS_P2;PMS_P1;PMS_P2;Temp;Humidity;BMP_temperature;BMP_pressure;BME280_temperature;BME280_humidity;BME280_pressure;Samples;Min_cycle;Max_cycle;Signal;HPM_P1;HPM_P2
2021/06/15 00:01:08;;;;;;;4.55;2.42;;;;;;;;;;4999454;28;20117;-61
2021/06/15 00:03:33;;;;;;;4.72;2.70;;;;;;;;;;5001503;28;20419;-61
2021/06/15 00:05:59;;;;;;;4.75;2.50;;;;;;;;;;5002669;28;20102;-61
2021/06/15 00:08:24;;;;;;;4.32;2.67;;;;;;;;;;5000888;28;20033;-61
2021/06/15 00:10:50;;;;;;;4.40;2.60;;;;;;;;;;5003618;28;20049;-61
2021/06/15 00:13:16;;;;;;;4.32;3.20;;;;;;;;;;5005171;28;20036;-61
2021/06/15 00:15:44;;;;;;;4.97;3.15;;;;;;;;;;5004892;28;20030;-61
2021/06/15 00:18:10;;;;;;;3.80;2.97;;;;;;;;;;5000223;28;20026;-61
2021/06/15 00:20:35;;;;;;;5.60;3.10;;;;;;;;;;4997299;28;20289;-61
2021/06/15 00:23:00;;;;;;;4.20;2.97;;;;;;;;;;5000357;28;20037;-60
2021/06/15 00:25:26;;;;;;;4.30;2.90;;;;;;;;;;4998702;28;20026;-61
2021/06/15 00:27:51;;;;;;;4.75;3.33;;;;;;;;;;4998172;28;20492;-61
2021/06/15 00:30:19;;;;;;;3.97;3.05;;;;;;;;;;4999870;28;20046;-61
2021/06/15 00:32:47;;;;;;;8.10;3.10;;;;;;;;;;5004775;28;20377;-61
2021/06/15 00:35:13;;;;;;;5.10;2.88;;;;;;;;;;4995580;28;20042;-61
2021/06/15 00:37:38;;;;;;;3.90;3.35;;;;;;;;;;4998770;28;20033;-61
2021/06/15 00:40:04;;;;;;;3.72;2.90;;;;;;;;;;5003008;28;20153;-61
2021/06/15 00:42:30;;;;;;;5.82;3.10;;;;;;;;;;5001446;28;20031;-61
2021/06/15 00:44:55;;;;;;;5.40;3.00;;;;;;;;;;4997302;28;20023;-61
2021/06/15 00:47:22;;;;;;;4.43;3.10;;;;;;;;;;5009613;28;20478;-61
2021/06/15 00:49:48;;;;;;;4.05;3.20;;;;;;;;;;5003443;28;20512;-61
2021/06/15 00:52:13;;;;;;;4.22;3.83;;;;;;;;;;5000861;28;20042;-61
2021/06/15 00:54:42;;;;;;;5.32;3.47;;;;;;;;;;5000936;28;20080;-61
2021/06/15 00:57:17;;;;;;;4.65;3.10;;;;;;;;;;5003737;28;20061;-61
2021/06/15 00:59:43;;;;;;;4.75;3.20;;;;;;;;;;5005577;28;20370;-61
2021/06/15 01:02:11;;;;;;;3.65;2.92;;;;;;;;;;5007412;28;20026;-61
2021/06/15 01:04:40;;;;;;;7.00;3.90;;;;;;;;;;5019471;28;20136;-61
2021/06/15 01:07:17;;;;;;;4.17;3.60;;;;;;;;;;5000969;28;20037;-61
2021/06/15 01:10:06;;;;;;;4.50;3.47;;;;;;;;;;5001417;28;20284;-61
2021/06/15 01:12:45;;;;;;;5.50;3.40;;;;;;;;;;5001012;28;20049;-61
2021/06/15 01:15:29;;;;;;;;;;;;;;;;;;5002140;28;20041;-61
2021/06/15 01:18:10;;;;;;;4.47;3.30;;;;;;;;;;5000372;28;19921;-61
2021/06/15 01:20:38;;;;;;;6.45;3.90;;;;;;;;;;4996708;28;20038;-61
2021/06/15 01:23:31;;;;;;;3.75;3.13;;;;;;;;;;5002208;28;20473;-61
2021/06/15 01:26:21;;;;;;;4.15;3.20;;;;;;;;;;5003312;28;20026;-61
2021/06/15 01:28:52;;;;;;;5.60;3.17;;;;;;;;;;5001584;28;20033;-61
2021/06/15 01:31:26;;;;;;;4.97;3.30;;;;;;;;;;5005184;28;20296;-61
2021/06/15 01:34:02;;;;;;;4.15;3.33;;;;;;;;;;5003146;28;20034;-61
2021/06/15 01:36:32;;;;;;;3.33;2.80;;;;;;;;;;5004266;28;20040;-61
2021/06/15 01:39:02;;;;;;;3.40;3.10;;;;;;;;;;4999694;28;20425;-61
2021/06/15 01:41:34;;;;;;;5.05;3.30;;;;;;;;;;4999761;28;20026;-61
2021/06/15 01:44:06;;;;;;;3.65;2.83;;;;;;;;;;5001250;28;20105;-61
2021/06/15 01:46:37;;;;;;;6.07;3.58;;;;;;;;;;5001844;28;20330;-61
2021/06/15 01:49:09;;;;;;;3.30;3.00;;;;;;;;;;5000267;28;20060;-61
2021/06/15 01:51:35;;;;;;;3.20;2.90;;;;;;;;;;5001838;28;20408;-61
2021/06/15 01:54:11;;;;;;;4.93;3.47;;;;;;;;;;5003665;28;20030;-61
2021/06/15 01:56:45;;;;;;;6.07;3.50;;;;;;;;;;4997816;28;20038;-61
2021/06/15 01:59:13;;;;;;;4.68;3.22;;;;;;;;;;5000434;28;20116;-59
2021/06/15 02:01:43;;;;;;;3.90;3.50;;;;;;;;;;5005055;28;20563;-60
2021/06/15 02:04:11;;;;;;;6.15;3.22;;;;;;;;;;5006086;28;20018;-60
2021/06/15 02:06:37;;;;;;;4.47;3.13;;;;;;;;;;5001144;28;20038;-60
2021/06/15 02:09:05;;;;;;;4.40;3.30;;;;;;;;;;4998248;28;21148;-60
2021/06/15 02:11:32;;;;;;;3.67;3.30;;;;;;;;;;4996758;28;20096;-60
2021/06/15 02:14:01;;;;;;;3.97;3.30;;;;;;;;;;5001995;28;20026;-60
2021/06/15 02:16:28;;;;;;;5.38;3.47;;;;;;;;;;5005274;28;20385;-60
2021/06/15 02:18:55;;;;;;;4.85;2.90;;;;;;;;;;5000517;28;20030;-60
2021/06/15 02:21:21;;;;;;;3.28;2.65;;;;;;;;;;5007012;28;20087;-60
2021/06/15 02:23:49;;;;;;;3.95;3.20;;;;;;;;;;5000809;28;20026;-60
2021/06/15 02:26:19;;;;;;;3.40;3.10;;;;;;;;;;4997863;28;20053;-60
2021/06/15 02:28:44;;;;;;;;;;;;;;;;;;5000295;28;20396;-60
2021/06/15 02:31:15;;;;;;;3.10;2.70;;;;;;;;;;5006349;28;19924;-60
2021/06/15 02:33:46;;;;;;;4.40;3.17;;;;;;;;;;5003384;28;20036;-60
2021/06/15 02:36:17;;;;;;;7.28;3.15;;;;;;;;;;5003167;28;20034;-60
2021/06/15 02:38:55;;;;;;;4.07;3.20;;;;;;;;;;5006126;28;20116;-60
2021/06/15 02:41:21;;;;;;;4.72;3.00;;;;;;;;;;5000954;28;20034;-60
2021/06/15 02:43:50;;;;;;;4.55;2.95;;;;;;;;;;5000066;28;20084;-60
2021/06/15 02:46:17;;;;;;;5.00;2.63;;;;;;;;;;5002715;28;20030;-60
2021/06/15 02:48:49;;;;;;;4.80;2.90;;;;;;;;;;4999948;28;20108;-60
2021/06/15 02:51:15;;;;;;;2.97;2.72;;;;;;;;;;4991192;28;20538;-60
2021/06/15 02:53:45;;;;;;;4.00;3.35;;;;;;;;;;5000700;28;20034;-60
2021/06/15 02:56:15;;;;;;;4.63;3.05;;;;;;;;;;5004585;28;20125;-60
2021/06/15 02:58:41;;;;;;;3.17;2.75;;;;;;;;;;4997502;28;20431;-60
2021/06/15 03:01:07;;;;;;;3.05;2.75;;;;;;;;;;4997878;28;20034;-60
2021/06/15 03:03:36;;;;;;;4.38;2.92;;;;;;;;;;5005644;28;20041;-60
2021/06/15 03:06:01;;;;;;;3.95;3.00;;;;;;;;;;5003110;28;20026;-60
2021/06/15 03:08:27;;;;;;;4.85;2.50;;;;;;;;;;5001671;28;20643;-60
2021/06/15 03:10:52;;;;;;;2.63;2.38;;;;;;;;;;4999676;28;20026;-60
2021/06/15 03:13:34;;;;;;;4.72;2.88;;;;;;;;;;5007503;28;20041;-60
2021/06/15 03:16:03;;;;;;;6.35;2.83;;;;;;;;;;4999359;28;20099;-60
2021/06/15 03:18:35;;;;;;;3.83;3.23;;;;;;;;;;4996064;28;20030;-60
2021/06/15 03:21:07;;;;;;;6.72;2.88;;;;;;;;;;5000830;28;20041;-60
2021/06/15 03:24:06;;;;;;;3.30;2.95;;;;;;;;;;5001364;28;20377;-60
2021/06/15 03:26:50;;;;;;;4.05;2.65;;;;;;;;;;4993339;28;20046;-60
2021/06/15 03:29:20;;;;;;;3.00;2.70;;;;;;;;;;5016023;28;20420;-60
2021/06/15 03:31:49;;;;;;;3.25;2.80;;;;;;;;;;5002278;28;20038;-60
2021/06/15 03:34:21;;;;;;;3.35;2.78;;;;;;;;;;4998674;28;20034;-60
2021/06/15 03:36:48;;;;;;;4.82;2.67;;;;;;;;;;4998950;28;20054;-60
2021/06/15 03:39:17;;;;;;;3.83;2.40;;;;;;;;;;5000918;28;20164;-59
2021/06/15 03:41:43;;;;;;;3.78;2.78;;;;;;;;;;5000999;28;20029;-60
2021/06/15 03:44:09;;;;;;;3.40;2.80;;;;;;;;;;5000530;28;20069;-59
2021/06/15 03:46:36;;;;;;;4.47;3.22;;;;;;;;;;4999062;28;20037;-60
2021/06/15 03:49:06;;;;;;;4.72;2.97;;;;;;;;;;5004260;28;20144;-60
2021/06/15 03:51:35;;;;;;;3.33;3.00;;;;;;;;;;5001453;28;20232;-60
2021/06/15 03:54:09;;;;;;;2.85;2.60;;;;;;;;;;5000082;28;20301;-60
2021/06/15 03:56:40;;;;;;;3.20;2.90;;;;;;;;;;5000439;28;20539;-60
2021/06/15 03:59:07;;;;;;;4.30;2.63;;;;;;;;;;5000758;28;20467;-60
2021/06/15 04:01:35;;;;;;;5.25;2.33;;;;;;;;;;5000409;28;20088;-59
2021/06/15 04:04:05;;;;;;;2.90;2.50;;;;;;;;;;5000373;28;20034;-60
2021/06/15 04:06:31;;;;;;;;;;;;;;;;;;4996336;28;20037;-60
2021/06/15 04:09:01;;;;;;;3.03;2.72;;;;;;;;;;5003180;28;19914;-59
2021/06/15 04:11:30;;;;;;;2.92;2.60;;;;;;;;;;5003683;28;20084;-60
2021/06/15 04:13:57;;;;;;;5.82;3.08;;;;;;;;;;5015922;28;20395;-60
2021/06/15 04:16:23;;;;;;;3.88;2.53;;;;;;;;;;4996733;28;20127;-60
2021/06/15 04:18:49;;;;;;;2.60;2.40;;;;;;;;;;5000785;28;20505;-60
2021/06/15 04:21:15;;;;;;;5.65;2.85;;;;;;;;;;4997723;28;20390;-60
2021/06/15 04:23:48;;;;;;;3.55;2.60;;;;;;;;;;4998978;28;20492;-60
2021/06/15 04:26:14;;;;;;;3.72;2.72;;;;;;;;;;4998760;28;20032;-60
2021/06/15 04:28:39;;;;;;;3.50;2.50;;;;;;;;;;5005678;28;20033;-60
2021/06/15 04:31:06;;;;;;;3.20;2.60;;;;;;;;;;5005672;28;20030;-60
2021/06/15 04:33:32;;;;;;;2.72;2.38;;;;;;;;;;4999426;28;20081;-60
2021/06/15 04:36:01;;;;;;;3.00;2.70;;;;;;;;;;4995601;28;20034;-60
2021/06/15 04:38:58;;;;;;;3.95;2.58;;;;;;;;;;4998426;28;20037;-60
2021/06/15 04:41:48;;;;;;;2.72;2.50;;;;;;;;;;5001766;28;20030;-60
2021/06/15 04:44:22;;;;;;;3.42;2.42;;;;;;;;;;5002883;28;20069;-60
2021/06/15 04:46:51;;;;;;;3.60;2.55;;;;;;;;;;5000335;28;20029;-60
2021/06/15 04:49:41;;;;;;;3.35;2.45;;;;;;;;;;5000478;28;20108;-60
2021/06/15 04:52:08;;;;;;;3.50;2.38;;;;;;;;;;4996391;28;20038;-60
2021/06/15 04:54:41;;;;;;;5.70;2.55;;;;;;;;;;5003588;28;20022;-60
2021/06/15 04:57:11;;;;;;;4.60;2.55;;;;;;;;;;5001303;28;20081;-60
2021/06/15 04:59:37;;;;;;;;;;;;;;;;;;5000721;28;20108;-59
2021/06/15 05:02:04;;;;;;;2.95;2.65;;;;;;;;;;4997362;28;19928;-60
2021/06/15 05:04:30;;;;;;;3.72;2.80;;;;;;;;;;5000538;28;20030;-60
2021/06/15 05:06:56;;;;;;;3.72;2.95;;;;;;;;;;5001216;28;20032;-60
2021/06/15 05:09:25;;;;;;;3.83;2.88;;;;;;;;;;5006831;28;20025;-59
2021/06/15 05:11:53;;;;;;;3.50;2.88;;;;;;;;;;4999625;28;20045;-59
2021/06/15 05:14:22;;;;;;;4.32;3.03;;;;;;;;;;4996596;28;20102;-59
2021/06/15 05:16:48;;;;;;;4.10;3.17;;;;;;;;;;5016969;28;20053;-59
2021/06/15 05:19:13;;;;;;;3.03;2.72;;;;;;;;;;5015539;28;20052;-59
2021/06/15 05:21:48;;;;;;;3.60;2.58;;;;;;;;;;5012999;28;20026;-59
2021/06/15 05:24:30;;;;;;;4.65;2.83;;;;;;;;;;5006764;28;20054;-59
2021/06/15 05:26:55;;;;;;;6.47;2.83;;;;;;;;;;5017452;28;20106;-59
2021/06/15 05:29:20;;;;;;;4.53;2.70;;;;;;;;;;5020536;28;20034;-59
2021/06/15 05:31:46;;;;;;;4.47;3.20;;;;;;;;;;5010971;28;20026;-59
2021/06/15 05:34:11;;;;;;;2.92;2.60;;;;;;;;;;5004014;28;20500;-59
2021/06/15 05:36:37;;;;;;;3.13;2.83;;;;;;;;;;5005058;28;20030;-59
2021/06/15 05:39:03;;;;;;;3.90;2.67;;;;;;;;;;5007341;28;20030;-59
2021/06/15 05:41:29;;;;;;;3.25;2.63;;;;;;;;;;5000120;28;20022;-59
2021/06/15 05:43:54;;;;;;;2.65;2.45;;;;;;;;;;5004519;28;20492;-59
2021/06/15 05:46:19;;;;;;;3.92;2.47;;;;;;;;;;5001615;28;20403;-59
2021/06/15 05:48:45;;;;;;;2.88;2.40;;;;;;;;;;5001003;28;20030;-59
2021/06/15 05:51:10;;;;;;;3.50;2.78;;;;;;;;;;5003213;28;20115;-59
2021/06/15 05:53:36;;;;;;;5.32;3.35;;;;;;;;;;5003048;28;20044;-59
2021/06/15 05:56:01;;;;;;;6.07;4.00;;;;;;;;;;5002115;28;20025;-59
2021/06/15 05:58:27;;;;;;;4.50;3.47;;;;;;;;;;5004648;28;20129;-59
2021/06/15 06:00:52;;;;;;;6.03;4.18;;;;;;;;;;5001485;28;20036;-59
2021/06/15 06:03:23;;;;;;;5.28;3.67;;;;;;;;;;5004850;28;20424;-59
2021/06/15 06:08:33;;;;;;;5.70;3.17;;;;;;;;;;5004337;28;20041;-60
2021/06/15 06:10:58;;;;;;;3.90;3.15;;;;;;;;;;5005608;28;20411;-59
2021/06/15 06:13:24;;;;;;;5.70;2.80;;;;;;;;;;5008635;28;20408;-59
2021/06/15 06:15:50;;;;;;;2.95;2.70;;;;;;;;;;4998039;28;20322;-59
2021/06/15 06:18:16;;;;;;;3.63;2.88;;;;;;;;;;4999052;28;20030;-60
2021/06/15 06:20:41;;;;;;;5.40;3.92;;;;;;;;;;4996558;28;20105;-60
2021/06/15 06:23:08;;;;;;;3.50;3.20;;;;;;;;;;5002207;28;20358;-60
2021/06/15 06:25:34;;;;;;;4.15;3.15;;;;;;;;;;5000690;28;20432;-60
2021/06/15 06:28:01;;;;;;;4.15;3.20;;;;;;;;;;5005144;28;20060;-60
2021/06/15 06:30:27;;;;;;;3.78;2.80;;;;;;;;;;5001926;28;20117;-60
2021/06/15 06:32:52;;;;;;;4.20;2.58;;;;;;;;;;5000930;28;20105;-60
2021/06/15 06:35:18;;;;;;;3.22;2.50;;;;;;;;;;4999428;28;20097;-60
2021/06/15 06:37:44;;;;;;;3.42;2.97;;;;;;;;;;4995760;28;20065;-60
2021/06/15 06:40:10;;;;;;;4.75;2.92;;;;;;;;;;5005608;28;20037;-61
2021/06/15 06:42:35;;;;;;;3.70;2.53;;;;;;;;;;5001049;28;20441;-60
2021/06/15 06:45:01;;;;;;;6.50;2.88;;;;;;;;;;5012882;28;20077;-60
2021/06/15 06:47:26;;;;;;;5.53;3.75;;;;;;;;;;5002114;28;20056;-60
2021/06/15 06:49:51;;;;;;;2.90;2.70;;;;;;;;;;5001695;28;20080;-60
2021/06/15 06:52:17;;;;;;;3.30;3.00;;;;;;;;;;5001260;28;20504;-60
2021/06/15 06:54:42;;;;;;;4.28;3.10;;;;;;;;;;5001928;28;20033;-60
2021/06/15 06:57:09;;;;;;;4.38;2.60;;;;;;;;;;4997095;28;20419;-60
2021/06/15 06:59:34;;;;;;;3.03;2.72;;;;;;;;;;5000740;28;20485;-60
2021/06/15 07:02:00;;;;;;;3.80;2.88;;;;;;;;;;5007053;28;20057;-60
2021/06/15 07:04:26;;;;;;;5.43;2.80;;;;;;;;;;5005283;28;20059;-60
2021/06/15 07:06:51;;;;;;;5.32;2.78;;;;;;;;;;4998787;28;20124;-60
2021/06/15 07:09:17;;;;;;;3.03;2.70;;;;;;;;;;4998974;28;20030;-60
2021/06/15 07:11:42;;;;;;;2.75;2.55;;;;;;;;;;4997782;28;20064;-60
2021/06/15 07:14:08;;;;;;;2.47;2.28;;;;;;;;;;5003206;28;20153;-60
2021/06/15 07:16:33;;;;;;;8.35;2.50;;;;;;;;;;5004180;28;20064;-60
2021/06/15 07:18:59;;;;;;;3.65;2.50;;;;;;;;;;4999956;28;20072;-60
2021/06/15 07:21:24;;;;;;;4.28;2.55;;;;;;;;;;4997279;28;20060;-60
2021/06/15 07:23:50;;;;;;;3.38;2.65;;;;;;;;;;5005323;28;20034;-60
2021/06/15 07:26:15;;;;;;;3.55;2.47;;;;;;;;;;5001309;28;20033;-60
2021/06/15 07:28:41;;;;;;;3.97;2.90;;;;;;;;;;5000178;28;20037;-60
2021/06/15 07:31:06;;;;;;;3.17;2.40;;;;;;;;;;5003795;28;20034;-60
2021/06/15 07:33:31;;;;;;;4.95;2.83;;;;;;;;;;5005733;28;20125;-60
2021/06/15 07:35:57;;;;;;;2.42;2.22;;;;;;;;;;4995007;28;20116;-60
2021/06/15 07:38:22;;;;;;;3.58;2.40;;;;;;;;;;4998179;28;20034;-61
2021/06/15 07:40:48;;;;;;;2.72;2.40;;;;;;;;;;4995797;28;20034;-60
2021/06/15 07:43:16;;;;;;;4.72;2.47;;;;;;;;;;4998405;28;20326;-59
2021/06/15 07:45:42;;;;;;;3.35;2.50;;;;;;;;;;4997686;28;20065;-59
2021/06/15 07:48:07;;;;;;;3.20;2.92;;;;;;;;;;5003625;28;20025;-59
2021/06/15 07:50:33;;;;;;;4.00;2.55;;;;;;;;;;5001664;28;20034;-59
2021/06/15 07:52:59;;;;;;;5.47;2.40;;;;;;;;;;5000001;28;20042;-60
2021/06/15 07:55:24;;;;;;;3.13;2.85;;;;;;;;;;5000077;28;20026;-60
2021/06/15 07:57:50;;;;;;;4.07;2.60;;;;;;;;;;5001007;28;20033;-60
2021/06/15 08:00:17;;;;;;;4.35;2.40;;;;;;;;;;4998608;28;20033;-60
2021/06/15 08:02:44;;;;;;;5.05;2.42;;;;;;;;;;5000446;28;20400;-60
2021/06/15 08:05:11;;;;;;;3.97;2.58;;;;;;;;;;4998683;28;20117;-59
2021/06/15 08:07:37;;;;;;;3.53;2.60;;;;;;;;;;5000742;28;20056;-60
2021/06/15 08:10:03;;;;;;;2.50;2.25;;;;;;;;;;5005265;28;20026;-60
2021/06/15 08:12:28;;;;;;;2.92;2.42;;;;;;;;;;5017473;28;20042;-60
2021/06/15 08:14:54;;;;;;;2.80;2.50;;;;;;;;;;5001174;28;20029;-60
2021/06/15 08:17:19;;;;;;;3.47;2.38;;;;;;;;;;4994725;28;20522;-60
2021/06/15 08:19:45;;;;;;;3.10;2.67;;;;;;;;;;4997376;28;20108;-59
2021/06/15 08:22:10;;;;;;;3.70;2.63;;;;;;;;;;4983587;28;20049;-59
2021/06/15 08:24:36;;;;;;;4.70;2.53;;;;;;;;;;4996824;28;20030;-59
2021/06/15 08:27:01;;;;;;;3.13;2.40;;;;;;;;;;5002534;28;20026;-59
2021/06/15 08:29:27;;;;;;;2.75;2.55;;;;;;;;;;5002179;28;20034;-60
2021/06/15 08:31:52;;;;;;;3.38;2.38;;;;;;;;;;4999328;28;20153;-61
2021/06/15 08:34:18;;;;;;;6.07;2.20;;;;;;;;;;4998001;28;20030;-60
2021/06/15 08:36:45;;;;;;;3.95;2.20;;;;;;;;;;4998470;28;20027;-59
2021/06/15 08:39:11;;;;;;;4.25;2.20;;;;;;;;;;5016939;28;20033;-59
2021/06/15 08:41:37;;;;;;;2.90;2.00;;;;;;;;;;5016196;28;20037;-59
2021/06/15 08:44:06;;;;;;;4.43;2.47;;;;;;;;;;5000355;28;20410;-60
2021/06/15 08:46:32;;;;;;;3.20;2.33;;;;;;;;;;4999698;28;20507;-60
2021/06/15 08:48:59;;;;;;;2.83;2.25;;;;;;;;;;5000713;28;20472;-60
2021/06/15 08:51:24;;;;;;;3.30;2.33;;;;;;;;;;4995636;28;20077;-60
2021/06/15 08:54:02;;;;;;;2.88;2.15;;;;;;;;;;4994802;28;20030;-60
2021/06/15 08:56:33;;;;;;;3.80;2.20;;;;;;;;;;4998086;28;20123;-60
2021/06/15 08:59:19;;;;;;;3.47;2.40;;;;;;;;;;5004486;28;20030;-60
2021/06/15 09:01:49;;;;;;;3.90;2.38;;;;;;;;;;5003614;28;20034;-60
2021/06/15 09:04:15;;;;;;;2.50;2.05;;;;;;;;;;5004712;28;20459;-60
2021/06/15 09:06:41;;;;;;;2.30;2.10;;;;;;;;;;5003116;28;20033;-61
2021/06/15 09:09:07;;;;;;;2.10;1.90;;;;;;;;;;5004216;28;20120;-60
2021/06/15 09:11:56;;;;;;;4.07;2.25;;;;;;;;;;5000884;28;20028;-60
2021/06/15 09:14:47;;;;;;;2.55;2.08;;;;;;;;;;5001474;28;20038;-60
2021/06/15 09:17:27;;;;;;;3.30;2.20;;;;;;;;;;5002594;28;21600;-60
2021/06/15 09:19:54;;;;;;;3.97;2.15;;;;;;;;;;4997714;28;20088;-61
2021/06/15 09:22:23;;;;;;;4.38;2.10;;;;;;;;;;5004599;28;20121;-60
2021/06/15 09:24:49;;;;;;;3.33;1.92;;;;;;;;;;5002555;28;20051;-61
2021/06/15 09:27:15;;;;;;;2.35;1.88;;;;;;;;;;5007771;28;20479;-60
2021/06/15 09:29:51;;;;;;;2.85;1.80;;;;;;;;;;4999750;28;20048;-60
2021/06/15 09:32:28;;;;;;;2.22;2.03;;;;;;;;;;5001095;28;20037;-61
2021/06/15 09:34:57;;;;;;;2.50;2.00;;;;;;;;;;5003077;28;20029;-61
2021/06/15 09:37:36;;;;;;;5.07;2.25;;;;;;;;;;5016706;28;20504;-61
2021/06/15 09:40:14;;;;;;;2.65;1.70;;;;;;;;;;5006085;28;20044;-61
2021/06/15 09:42:52;;;;;;;2.00;1.77;;;;;;;;;;5002226;28;20018;-61
2021/06/15 09:45:25;;;;;;;4.15;2.20;;;;;;;;;;4998308;28;20044;-61
2021/06/15 09:47:52;;;;;;;3.55;1.92;;;;;;;;;;5001509;28;20423;-60
2021/06/15 09:50:23;;;;;;;2.83;2.08;;;;;;;;;;4999932;28;20038;-60
2021/06/15 09:52:48;;;;;;;4.90;2.00;;;;;;;;;;5000425;28;20400;-61
2021/06/15 09:55:17;;;;;;;2.58;1.92;;;;;;;;;;5002910;28;20109;-61
2021/06/15 09:57:48;;;;;;;3.17;1.90;;;;;;;;;;5007690;28;20391;-61
2021/06/15 10:00:17;;;;;;;3.25;1.65;;;;;;;;;;5001287;28;20033;-61
2021/06/15 10:02:57;;;;;;;3.60;1.88;;;;;;;;;;5003012;28;20013;-61
2021/06/15 10:05:25;;;;;;;2.88;1.55;;;;;;;;;;5000756;28;20065;-61
2021/06/15 10:07:52;;;;;;;3.67;1.60;;;;;;;;;;5003576;28;20076;-61
2021/06/15 10:10:22;;;;;;;1.67;1.40;;;;;;;;;;5003850;28;20552;-61
2021/06/15 10:12:49;;;;;;;1.50;1.40;;;;;;;;;;5002450;28;20104;-61
2021/06/15 10:15:15;;;;;;;2.25;1.30;;;;;;;;;;5000582;28;20054;-61
2021/06/15 10:17:44;;;;;;;6.25;1.92;;;;;;;;;;5001162;28;20053;-61
2021/06/15 10:20:10;;;;;;;1.55;1.30;;;;;;;;;;5000140;28;20030;-61
2021/06/15 10:22:36;;;;;;;2.03;1.48;;;;;;;;;;5003558;28;20034;-61
2021/06/15 10:25:03;;;;;;;3.53;1.60;;;;;;;;;;5005894;28;20104;-61
2021/06/15 10:27:30;;;;;;;1.92;1.50;;;;;;;;;;4998934;28;20109;-61
2021/06/15 10:29:56;;;;;;;1.60;1.50;;;;;;;;;;5005214;28;20149;-61
2021/06/15 10:32:24;;;;;;;6.00;1.50;;;;;;;;;;4998833;28;20548;-62
2021/06/15 10:34:58;;;;;;;3.00;1.60;;;;;;;;;;4999723;28;20064;-61
2021/06/15 10:37:33;;;;;;;2.80;1.48;;;;;;;;;;4999610;28;20030;-61
2021/06/15 10:40:00;;;;;;;2.75;1.30;;;;;;;;;;4998540;28;20456;-61
2021/06/15 10:42:26;;;;;;;2.78;1.50;;;;;;;;;;5001289;28;20109;-61
2021/06/15 10:45:11;;;;;;;2.83;1.67;;;;;;;;;;4998640;28;20114;-62
2021/06/15 10:47:37;;;;;;;5.03;1.33;;;;;;;;;;4996152;28;20117;-61
2021/06/15 10:50:05;;;;;;;1.33;1.23;;;;;;;;;;5003300;28;20117;-61
2021/06/15 10:53:02;;;;;;;2.47;1.23;;;;;;;;;;5002530;28;20042;-62
2021/06/15 10:55:46;;;;;;;2.00;1.30;;;;;;;;;;5003826;28;20041;-62
2021/06/15 10:58:13;;;;;;;3.20;1.88;;;;;;;;;;5001454;28;20061;-62
2021/06/15 11:00:47;;;;;;;1.95;1.20;;;;;;;;;;5006563;28;20128;-62
2021/06/15 11:03:16;;;;;;;3.45;1.65;;;;;;;;;;5002937;28;20507;-62
2021/06/15 11:05:43;;;;;;;3.00;1.50;;;;;;;;;;5008481;28;20092;-62
2021/06/15 11:08:35;;;;;;;3.47;1.40;;;;;;;;;;4995492;28;20041;-62
2021/06/15 11:11:16;;;;;;;1.48;1.20;;;;;;;;;;4998067;28;20104;-61
2021/06/15 11:13:53;;;;;;;2.22;1.30;;;;;;;;;;5003120;28;20386;-61
2021/06/15 11:16:26;;;;;;;1.50;1.03;;;;;;;;;;5001745;28;20032;-61
2021/06/15 11:19:13;;;;;;;4.40;1.75;;;;;;;;;;5000760;28;20276;-62
2021/06/15 11:22:03;;;;;;;4.63;2.83;;;;;;;;;;5001470;28;20028;-62
2021/06/15 11:24:51;;;;;;;1.95;1.23;;;;;;;;;;4994820;28;20029;-61
2021/06/15 11:27:32;;;;;;;2.25;1.20;;;;;;;;;;4999626;28;20068;-62
2021/06/15 11:30:18;;;;;;;2.70;1.27;;;;;;;;;;4999826;28;20111;-62
2021/06/15 11:32:55;;;;;;;1.77;1.02;;;;;;;;;;4994203;28;20101;-62
2021/06/15 11:35:20;;;;;;;1.70;1.23;;;;;;;;;;5001413;28;20393;-61
2021/06/15 11:37:49;;;;;;;1.20;1.10;;;;;;;;;;4996974;28;20060;-61
2021/06/15 11:40:42;;;;;;;1.50;1.00;;;;;;;;;;5002565;28;20121;-61
2021/06/15 11:43:08;;;;;;;1.38;1.15;;;;;;;;;;4996526;28;20066;-61
2021/06/15 11:45:35;;;;;;;1.27;0.98;;;;;;;;;;4999680;28;20069;-61
2021/06/15 11:48:24;;;;;;;1.25;1.08;;;;;;;;;;5004397;28;20542;-61
2021/06/15 11:50:54;;;;;;;1.95;1.13;;;;;;;;;;5002439;28;20491;-61
2021/06/15 11:53:21;;;;;;;1.88;1.10;;;;;;;;;;5000786;28;20032;-61
2021/06/15 11:55:52;;;;;;;1.20;1.10;;;;;;;;;;4998534;28;20037;-61
2021/06/15 11:58:27;;;;;;;1.30;1.02;;;;;;;;;;5005984;28;20141;-61
2021/06/15 12:01:13;;;;;;;2.67;1.00;;;;;;;;;;5004807;28;20037;-61
2021/06/15 12:03:41;;;;;;;1.73;0.93;;;;;;;;;;4998411;28;20502;-61
2021/06/15 12:06:08;;;;;;;1.98;0.90;;;;;;;;;;5004121;28;20029;-61
2021/06/15 12:08:38;;;;;;;1.05;1.05;;;;;;;;;;5002818;28;20121;-61
2021/06/15 12:11:08;;;;;;;3.03;0.90;;;;;;;;;;5004343;28;20505;-61
2021/06/15 12:13:36;;;;;;;3.00;0.93;;;;;;;;;;5003488;28;20033;-61
2021/06/15 12:16:04;;;;;;;1.37;1.00;;;;;;;;;;4996837;28;20121;-61
2021/06/15 12:18:33;;;;;;;2.10;1.27;;;;;;;;;;4995668;28;20281;-61
2021/06/15 12:21:08;;;;;;;1.63;1.08;;;;;;;;;;4997973;28;20030;-61
2021/06/15 12:23:53;;;;;;;2.00;0.95;;;;;;;;;;4996849;28;20030;-61
2021/06/15 12:26:20;;;;;;;2.08;0.98;;;;;;;;;;4998594;28;20072;-61
2021/06/15 12:28:50;;;;;;;3.28;1.10;;;;;;;;;;5020731;28;20030;-61
2021/06/15 12:31:20;;;;;;;1.10;0.82;;;;;;;;;;5005377;28;20041;-61
2021/06/15 12:33:49;;;;;;;3.15;1.10;;;;;;;;;;5000912;28;20485;-62
2021/06/15 12:36:19;;;;;;;2.83;1.02;;;;;;;;;;5003666;28;20041;-62
2021/06/15 12:38:45;;;;;;;1.10;1.00;;;;;;;;;;5000117;28;20053;-61
2021/06/15 12:41:16;;;;;;;0.73;0.73;;;;;;;;;;5006304;28;20033;-62
2021/06/15 12:43:43;;;;;;;1.48;1.23;;;;;;;;;;5007111;28;20029;-62
2021/06/15 12:46:19;;;;;;;3.63;1.10;;;;;;;;;;5004043;28;20045;-62
2021/06/15 12:48:58;;;;;;;1.30;0.90;;;;;;;;;;5002704;28;20029;-62
2021/06/15 12:51:30;;;;;;;2.20;1.23;;;;;;;;;;4994309;28;20030;-62
2021/06/15 12:54:02;;;;;;;1.67;1.13;;;;;;;;;;5003903;28;20049;-61
2021/06/15 12:56:29;;;;;;;1.35;1.00;;;;;;;;;;5002245;28;20030;-62
2021/06/15 12:58:57;;;;;;;1.25;1.15;;;;;;;;;;5006199;28;20041;-61
2021/06/15 13:01:34;;;;;;;3.00;1.20;;;;;;;;;;5004171;28;20042;-62
2021/06/15 13:04:15;;;;;;;2.47;1.33;;;;;;;;;;5005080;28;20071;-62
2021/06/15 13:06:41;;;;;;;1.05;1.00;;;;;;;;;;5001078;28;20034;-62
2021/06/15 13:09:13;;;;;;;1.30;1.05;;;;;;;;;;4999376;28;20033;-62
2021/06/15 13:12:12;;;;;;;2.00;1.30;;;;;;;;;;5002391;28;20040;-62
2021/06/15 13:14:42;;;;;;;3.00;1.10;;;;;;;;;;4990644;28;20045;-62
2021/06/15 13:17:11;;;;;;;2.35;1.25;;;;;;;;;;5005445;28;20515;-62
2021/06/15 13:19:39;;;;;;;1.92;1.10;;;;;;;;;;4999295;28;20030;-62
2021/06/15 13:22:06;;;;;;;1.88;1.00;;;;;;;;;;5008413;28;20030;-62
2021/06/15 13:24:38;;;;;;;2.63;1.30;;;;;;;;;;4999554;28;20504;-62
2021/06/15 13:27:25;;;;;;;1.63;1.00;;;;;;;;;;4998341;28;20042;-61
2021/06/15 13:29:52;;;;;;;2.10;1.15;;;;;;;;;;5006490;28;20040;-61
2021/06/15 13:32:25;;;;;;;2.45;1.30;;;;;;;;;;5005832;28;20615;-62
2021/06/15 13:35:08;;;;;;;3.10;1.10;;;;;;;;;;5006466;28;20034;-62
2021/06/15 13:37:50;;;;;;;0.90;0.90;;;;;;;;;;5001779;28;20121;-62
2021/06/15 13:40:28;;;;;;;1.70;0.98;;;;;;;;;;4998139;28;20544;-62
2021/06/15 13:42:57;;;;;;;4.28;0.90;;;;;;;;;;5008344;28;20026;-63
2021/06/15 13:45:31;;;;;;;1.52;0.90;;;;;;;;;;4996971;28;20038;-63
2021/06/15 13:47:57;;;;;;;1.40;1.00;;;;;;;;;;5018402;28;20034;-63
2021/06/15 13:50:23;;;;;;;3.38;1.10;;;;;;;;;;5009048;28;20098;-63
2021/06/15 13:52:48;;;;;;;1.45;0.90;;;;;;;;;;5004678;28;20030;-63
2021/06/15 13:55:18;;;;;;;1.50;0.93;;;;;;;;;;5004479;28;20064;-63
2021/06/15 13:57:44;;;;;;;1.20;0.80;;;;;;;;;;5007136;28;20025;-62
2021/06/15 14:00:13;;;;;;;0.85;0.85;;;;;;;;;;5004643;28;20102;-62
2021/06/15 14:02:38;;;;;;;1.38;0.85;;;;;;;;;;5001847;28;20108;-62
2021/06/15 14:05:05;;;;;;;3.72;1.20;;;;;;;;;;5000053;28;20488;-62
2021/06/15 14:07:30;;;;;;;0.98;0.80;;;;;;;;;;5005747;28;20049;-63
2021/06/15 14:09:56;;;;;;;1.02;0.70;;;;;;;;;;5006385;28;20030;-63
2021/06/15 14:12:21;;;;;;;1.98;0.80;;;;;;;;;;5001267;28;20033;-62
2021/06/15 14:14:47;;;;;;;1.75;0.88;;;;;;;;;;5008986;28;20030;-62
2021/06/15 14:17:12;;;;;;;1.10;1.00;;;;;;;;;;5000331;28;20065;-63
2021/06/15 14:19:38;;;;;;;1.55;1.08;;;;;;;;;;5021686;28;20061;-62
2021/06/15 14:22:04;;;;;;;1.15;1.05;;;;;;;;;;5004469;28;20227;-62
2021/06/15 14:24:29;;;;;;;1.92;1.05;;;;;;;;;;5002830;28;20037;-62
2021/06/15 14:27:01;;;;;;;1.90;1.10;;;;;;;;;;5002292;28;20126;-62
2021/06/15 14:29:27;;;;;;;0.85;0.80;;;;;;;;;;4999540;28;20026;-62
2021/06/15 14:31:52;;;;;;;0.93;0.77;;;;;;;;;;5004517;28;20076;-63
2021/06/15 14:34:21;;;;;;;1.33;0.93;;;;;;;;;;5007088;28;20033;-63
2021/06/15 14:36:47;;;;;;;2.85;0.75;;;;;;;;;;4998830;28;20112;-62
2021/06/15 14:39:12;;;;;;;1.67;1.10;;;;;;;;;;5002347;28;20130;-64
2021/06/15 14:41:38;;;;;;;0.75;0.70;;;;;;;;;;4997986;28;20524;-63
2021/06/15 14:44:03;;;;;;;1.52;0.90;;;;;;;;;;5002511;28;20038;-63
2021/06/15 14:46:30;;;;;;;1.90;0.98;;;;;;;;;;5001501;28;20042;-62
2021/06/15 14:48:55;;;;;;;0.93;0.90;;;;;;;;;;5003325;28;20492;-62
2021/06/15 14:51:21;;;;;;;1.10;0.90;;;;;;;;;;5001080;28;20503;-64
2021/06/15 14:53:47;;;;;;;2.08;0.80;;;;;;;;;;5005281;28;20037;-63
2021/06/15 14:56:13;;;;;;;2.15;0.90;;;;;;;;;;5003077;28;20057;-63
2021/06/15 14:58:38;;;;;;;1.00;0.75;;;;;;;;;;4998621;28;20052;-63
2021/06/15 15:01:04;;;;;;;1.83;0.80;;;;;;;;;;5004746;28;20056;-63